Time;durP1;ratioP1;P1;durP2;ratioP2;P2;SDS_P1;SDS_P2;PMS_P1;PMS_P2;Temp;Humidity;BMP_temperature;BMP_pressure;BME280_temperature;BME280_humidity;BME280_pressure;Samples;Min_cycle;Max_cycle;Signal;HPM_P1;HPM_P2
2022/12/10 00:01:52;;;;;;;60.00;19.00;;;;;;;;;;5021275;28;20029;-86
2022/12/10 00:04:18;;;;;;;58.30;20.53;;;;;;;;;;5030936;28;20026;-85
2022/12/10 00:06:43;;;;;;;57.73;19.63;;;;;;;;;;5030870;28;20025;-85
2022/12/10 00:09:13;;;;;;;48.77;16.97;;;;;;;;;;5029693;28;20032;-85
2022/12/10 00:11:39;;;;;;;51.40;17.07;;;;;;;;;;5028377;28;20013;-85
2022/12/10 00:14:04;;;;;;;60.37;18.20;;;;;;;;;;5031598;28;20026;-85
2022/12/10 00:16:30;;;;;;;54.53;18.43;;;;;;;;;;5034338;28;20037;-84
2022/12/10 00:18:56;;;;;;;60.17;18.53;;;;;;;;;;5025570;28;20040;-85
2022/12/10 00:21:22;;;;;;;59.37;18.10;;;;;;;;;;5032311;28;20021;-85
2022/12/10 00:23:48;;;;;;;56.33;18.77;;;;;;;;;;5030689;28;20045;-85
2022/12/10 00:26:17;;;;;;;56.27;18.77;;;;;;;;;;5028272;28;20080;-85
2022/12/10 00:28:43;;;;;;;59.43;19.23;;;;;;;;;;5034904;28;20075;-85
2022/12/10 00:31:09;;;;;;;60.77;18.87;;;;;;;;;;5030856;28;20022;-83
2022/12/10 00:33:35;;;;;;;60.27;20.00;;;;;;;;;;5046849;28;20084;-85
2022/12/10 00:36:01;;;;;;;60.67;20.07;;;;;;;;;;5029785;28;20465;-85
2022/12/10 00:38:26;;;;;;;56.73;19.03;;;;;;;;;;5027486;28;20440;-85
2022/12/10 00:40:51;;;;;;;53.80;19.90;;;;;;;;;;5024320;28;20017;-85
2022/12/10 00:43:17;;;;;;;54.03;18.67;;;;;;;;;;5021787;28;20033;-85
2022/12/10 00:45:42;;;;;;;60.00;19.80;;;;;;;;;;5031980;28;20021;-85
2022/12/10 00:48:07;;;;;;;54.80;19.80;;;;;;;;;;5030522;28;20113;-85
2022/12/10 00:50:32;;;;;;;55.93;18.87;;;;;;;;;;5029663;28;20044;-85
2022/12/10 00:52:57;;;;;;;54.57;18.60;;;;;;;;;;5030201;28;20049;-84
2022/12/10 00:55:23;;;;;;;56.43;19.03;;;;;;;;;;5030484;28;20049;-85
2022/12/10 00:57:48;;;;;;;53.07;18.57;;;;;;;;;;5033086;28;20021;-85
2022/12/10 01:00:13;;;;;;;60.23;18.90;;;;;;;;;;5019818;28;20470;-84
2022/12/10 01:02:38;;;;;;;49.27;17.60;;;;;;;;;;5033851;28;20032;-85
2022/12/10 01:05:04;;;;;;;51.60;17.57;;;;;;;;;;5034796;28;20052;-85
2022/12/10 01:07:29;;;;;;;54.93;16.70;;;;;;;;;;5031808;28;20101;-85
2022/12/10 01:09:54;;;;;;;51.87;20.07;;;;;;;;;;5033510;28;20018;-85
2022/12/10 01:12:19;;;;;;;52.47;17.53;;;;;;;;;;5035029;28;20416;-85
2022/12/10 01:14:44;;;;;;;55.80;18.90;;;;;;;;;;5032243;28;20416;-85
2022/12/10 01:17:10;;;;;;;51.33;19.20;;;;;;;;;;5033373;28;20082;-85
2022/12/10 01:19:35;;;;;;;52.33;17.47;;;;;;;;;;5031706;28;20034;-85
2022/12/10 01:22:01;;;;;;;54.63;18.43;;;;;;;;;;5034804;28;20021;-85
2022/12/10 01:24:27;;;;;;;43.93;16.30;;;;;;;;;;5033675;28;20465;-85
2022/12/10 01:26:54;;;;;;;47.30;16.67;;;;;;;;;;5033523;28;20025;-85
2022/12/10 01:29:19;;;;;;;50.37;17.93;;;;;;;;;;5033416;28;20032;-85
2022/12/10 01:31:47;;;;;;;46.70;16.63;;;;;;;;;;5032562;28;20017;-85
2022/12/10 01:34:13;;;;;;;46.50;16.63;;;;;;;;;;5034574;28;20043;-85
2022/12/10 01:36:39;;;;;;;51.13;18.10;;;;;;;;;;5033288;28;20032;-85
2022/12/10 01:39:06;;;;;;;49.33;18.30;;;;;;;;;;5033410;28;20432;-85
2022/12/10 01:41:37;;;;;;;50.43;17.27;;;;;;;;;;5033336;28;20381;-85
2022/12/10 01:44:05;;;;;;;44.27;15.87;;;;;;;;;;5031568;28;20116;-85
2022/12/10 01:46:31;;;;;;;47.20;15.70;;;;;;;;;;5033045;28;20070;-85
2022/12/10 01:48:57;;;;;;;53.13;18.90;;;;;;;;;;5039944;28;20019;-85
2022/12/10 01:51:23;;;;;;;50.10;17.43;;;;;;;;;;5019149;28;20424;-85
2022/12/10 01:53:49;;;;;;;49.00;18.07;;;;;;;;;;5020338;28;20481;-85
2022/12/10 01:56:15;;;;;;;40.93;16.37;;;;;;;;;;5033591;28;20032;-85
2022/12/10 01:58:41;;;;;;;46.57;17.37;;;;;;;;;;5032867;28;20028;-85
2022/12/10 02:01:26;;;;;;;45.93;18.27;;;;;;;;;;5032939;28;20357;-85
2022/12/10 02:03:52;;;;;;;48.50;16.10;;;;;;;;;;5032490;28;20025;-85
2022/12/10 02:06:33;;;;;;;49.57;17.27;;;;;;;;;;5033959;28;20112;-85
2022/12/10 02:09:09;;;;;;;50.40;18.40;;;;;;;;;;5028525;28;20095;-85
2022/12/10 02:11:54;;;;;;;53.37;19.43;;;;;;;;;;5031508;28;20450;-85
2022/12/10 02:14:24;;;;;;;56.43;19.33;;;;;;;;;;5031697;28;20033;-85
2022/12/10 02:16:59;;;;;;;53.13;18.77;;;;;;;;;;5032453;28;20057;-86
2022/12/10 02:19:31;;;;;;;45.83;18.13;;;;;;;;;;5034384;28;20029;-86
2022/12/10 02:21:57;;;;;;;53.40;19.13;;;;;;;;;;5033828;28;20163;-86
2022/12/10 02:24:27;;;;;;;59.13;18.33;;;;;;;;;;5032453;28;20018;-86
2022/12/10 02:26:58;;;;;;;52.17;17.43;;;;;;;;;;5032888;28;20017;-86
2022/12/10 02:29:24;;;;;;;49.50;19.27;;;;;;;;;;5032562;28;20028;-86
2022/12/10 02:32:09;;;;;;;57.13;19.43;;;;;;;;;;5033943;28;20094;-86
2022/12/10 02:34:40;;;;;;;55.80;19.80;;;;;;;;;;5032235;28;20037;-86
2022/12/10 02:37:08;;;;;;;59.20;19.33;;;;;;;;;;5032427;28;20028;-86
2022/12/10 02:39:39;;;;;;;50.63;17.57;;;;;;;;;;5031681;28;20029;-86
2022/12/10 02:42:05;;;;;;;56.70;21.40;;;;;;;;;;5032268;28;20109;-86
2022/12/10 02:44:32;;;;;;;49.87;17.57;;;;;;;;;;5031759;28;20358;-86
2022/12/10 02:46:58;;;;;;;55.10;19.60;;;;;;;;;;5032237;28;20532;-87
2022/12/10 02:49:24;;;;;;;48.73;18.07;;;;;;;;;;5032225;28;20045;-86
2022/12/10 02:51:49;;;;;;;56.20;15.93;;;;;;;;;;5032118;28;20022;-86
2022/12/10 02:54:33;;;;;;;47.10;15.40;;;;;;;;;;5031397;28;20029;-86
2022/12/10 02:57:00;;;;;;;56.27;17.03;;;;;;;;;;5048513;28;20017;-86
2022/12/10 02:59:34;;;;;;;50.73;17.17;;;;;;;;;;5031822;28;20025;-86
2022/12/10 03:02:06;;;;;;;52.17;16.87;;;;;;;;;;5031990;28;20053;-86
2022/12/10 03:04:51;;;;;;;53.85;19.17;;;;;;;;;;5031717;28;20044;-86
2022/12/10 03:07:20;;;;;;;44.13;15.77;;;;;;;;;;5031049;28;20029;-86
2022/12/10 03:09:47;;;;;;;49.97;16.70;;;;;;;;;;5031618;28;20045;-86
2022/12/10 03:12:25;;;;;;;50.37;16.97;;;;;;;;;;5033166;28;20104;-86
2022/12/10 03:14:50;;;;;;;52.80;17.67;;;;;;;;;;5031519;28;20037;-87
2022/12/10 03:17:16;;;;;;;49.47;17.77;;;;;;;;;;5031530;28;20092;-87
2022/12/10 03:19:47;;;;;;;57.50;18.30;;;;;;;;;;5031434;28;20028;-87
2022/12/10 03:22:13;;;;;;;57.60;20.40;;;;;;;;;;5030189;28;20021;-87
2022/12/10 03:24:39;;;;;;;54.80;19.10;;;;;;;;;;5031526;28;20022;-86
2022/12/10 03:27:06;;;;;;;57.50;20.07;;;;;;;;;;5033007;28;20428;-87
2022/12/10 03:29:34;;;;;;;53.37;18.17;;;;;;;;;;5032460;28;20519;-87
2022/12/10 03:31:59;;;;;;;51.57;17.47;;;;;;;;;;5031717;28;20020;-87
2022/12/10 03:34:24;;;;;;;49.93;16.77;;;;;;;;;;5031189;28;20025;-86
2022/12/10 03:36:50;;;;;;;49.40;17.60;;;;;;;;;;5030488;28;20028;-87
2022/12/10 03:39:16;;;;;;;51.13;17.87;;;;;;;;;;5031380;28;20049;-87
2022/12/10 03:41:41;;;;;;;52.23;18.87;;;;;;;;;;5032412;28;20052;-87
2022/12/10 03:44:06;;;;;;;45.53;17.27;;;;;;;;;;5031231;28;20017;-87
2022/12/10 03:46:32;;;;;;;42.97;15.80;;;;;;;;;;5031344;28;20037;-87
2022/12/10 03:48:58;;;;;;;53.40;17.57;;;;;;;;;;5031148;28;20018;-87
2022/12/10 03:51:23;;;;;;;49.97;17.43;;;;;;;;;;5030601;28;20472;-87
2022/12/10 03:53:51;;;;;;;49.93;17.83;;;;;;;;;;5030836;28;20021;-87
2022/12/10 03:56:17;;;;;;;50.17;16.73;;;;;;;;;;5032466;28;20024;-87
2022/12/10 03:58:42;;;;;;;59.13;18.13;;;;;;;;;;5030362;28;20469;-87
2022/12/10 04:01:08;;;;;;;60.40;18.13;;;;;;;;;;5031128;28;20026;-87
2022/12/10 04:03:37;;;;;;;52.60;16.80;;;;;;;;;;5031096;28;20033;-88
2022/12/10 04:06:04;;;;;;;52.03;16.63;;;;;;;;;;5030012;28;20377;-88
2022/12/10 04:08:29;;;;;;;48.63;15.93;;;;;;;;;;5024315;28;20026;-88
2022/12/10 04:10:54;;;;;;;59.70;17.87;;;;;;;;;;5043116;28;20079;-88
2022/12/10 04:18:47;;;;;;;47.93;17.17;;;;;;;;;;5031591;28;20433;-87
2022/12/10 04:27:01;;;;;;;62.20;19.33;;;;;;;;;;5032460;28;20385;-88
2022/12/10 04:29:27;;;;;;;52.30;17.30;;;;;;;;;;5032093;28;20493;-88
2022/12/10 04:31:52;;;;;;;54.90;17.63;;;;;;;;;;5032708;28;20014;-88
2022/12/10 04:34:18;;;;;;;49.00;15.93;;;;;;;;;;5034192;28;20021;-88
2022/12/10 04:36:43;;;;;;;51.63;15.83;;;;;;;;;;5035961;28;20098;-88
2022/12/10 04:39:11;;;;;;;56.83;17.83;;;;;;;;;;5034519;28;20078;-87
2022/12/10 04:41:36;;;;;;;58.30;20.63;;;;;;;;;;5035749;28;20040;-87
2022/12/10 04:44:01;;;;;;;56.97;19.87;;;;;;;;;;5034297;28;20465;-88
2022/12/10 04:46:27;;;;;;;59.40;18.17;;;;;;;;;;5035075;28;20024;-87
2022/12/10 04:48:52;;;;;;;55.23;19.67;;;;;;;;;;5021559;28;20009;-88
2022/12/10 04:51:18;;;;;;;69.47;19.20;;;;;;;;;;5034427;28;20358;-87
2022/12/10 04:53:43;;;;;;;55.27;19.43;;;;;;;;;;5034305;28;20036;-88
2022/12/10 04:56:08;;;;;;;65.70;22.37;;;;;;;;;;5034346;28;20071;-88
2022/12/10 04:58:33;;;;;;;65.53;22.67;;;;;;;;;;5034021;28;20627;-89
2022/12/10 05:01:07;;;;;;;64.70;21.07;;;;;;;;;;5033727;28;20033;-87
2022/12/10 05:03:32;;;;;;;66.23;20.17;;;;;;;;;;5033392;28;20037;-88
2022/12/10 05:06:01;;;;;;;57.20;18.40;;;;;;;;;;5034210;28;20029;-88
2022/12/10 05:08:27;;;;;;;64.47;19.97;;;;;;;;;;5030785;28;20030;-87
2022/12/10 05:10:52;;;;;;;58.07;17.47;;;;;;;;;;5034268;28;20464;-87
2022/12/10 05:13:17;;;;;;;60.47;18.07;;;;;;;;;;5034211;28;20018;-88
2022/12/10 05:15:42;;;;;;;47.87;15.63;;;;;;;;;;5032333;28;20025;-86
2022/12/10 05:18:07;;;;;;;51.43;16.00;;;;;;;;;;5034083;28;20108;-87
2022/12/10 05:20:33;;;;;;;59.87;17.77;;;;;;;;;;5033824;28;20058;-87
2022/12/10 05:25:54;;;;;;;44.47;13.33;;;;;;;;;;5035008;28;20021;-88
2022/12/10 05:28:22;;;;;;;43.07;13.43;;;;;;;;;;5033958;28;20048;-87
2022/12/10 05:30:48;;;;;;;51.97;16.07;;;;;;;;;;5033098;28;20061;-88
2022/12/10 05:33:14;;;;;;;47.00;17.20;;;;;;;;;;5033815;28;20013;-88
2022/12/10 05:35:39;;;;;;;45.70;15.70;;;;;;;;;;5033799;28;20026;-88
2022/12/10 05:38:05;;;;;;;50.20;16.70;;;;;;;;;;5033833;28;20163;-88
2022/12/10 05:40:30;;;;;;;55.13;19.67;;;;;;;;;;5032977;28;20288;-88
2022/12/10 05:42:56;;;;;;;45.87;16.27;;;;;;;;;;5032420;28;20028;-88
2022/12/10 05:45:21;;;;;;;52.93;16.77;;;;;;;;;;5032928;28;20025;-88
2022/12/10 05:47:46;;;;;;;52.47;15.67;;;;;;;;;;5034710;28;20454;-88
2022/12/10 05:50:11;;;;;;;48.40;14.17;;;;;;;;;;5033337;28;20033;-87
2022/12/10 05:52:36;;;;;;;41.50;13.13;;;;;;;;;;5032769;28;20147;-88
2022/12/10 05:55:02;;;;;;;42.20;14.13;;;;;;;;;;5033258;28;20060;-87
2022/12/10 05:57:27;;;;;;;47.83;16.87;;;;;;;;;;5033237;28;20445;-87
2022/12/10 05:59:52;;;;;;;50.33;16.40;;;;;;;;;;5034327;28;20376;-87
2022/12/10 06:02:17;;;;;;;51.67;15.57;;;;;;;;;;5032973;28;20026;-88
2022/12/10 06:04:42;;;;;;;54.53;17.57;;;;;;;;;;5033046;28;20113;-87
2022/12/10 06:07:08;;;;;;;63.10;17.97;;;;;;;;;;5032130;28;20427;-88
2022/12/10 06:09:33;;;;;;;55.40;16.73;;;;;;;;;;5032367;28;20053;-87
2022/12/10 06:11:58;;;;;;;48.47;14.33;;;;;;;;;;5033026;28;20020;-87
2022/12/10 06:14:23;;;;;;;42.97;12.33;;;;;;;;;;5032400;28;20025;-88
2022/12/10 06:16:48;;;;;;;52.43;15.50;;;;;;;;;;5033064;28;20473;-87
2022/12/10 06:19:14;;;;;;;47.53;15.43;;;;;;;;;;5032049;28;20029;-88
2022/12/10 06:21:39;;;;;;;40.70;11.80;;;;;;;;;;5032745;28;20199;-88
2022/12/10 06:24:04;;;;;;;46.87;14.50;;;;;;;;;;5032732;28;20091;-88
2022/12/10 06:26:29;;;;;;;56.77;16.43;;;;;;;;;;5033035;28;20388;-87
2022/12/10 06:28:55;;;;;;;51.10;15.37;;;;;;;;;;5032371;28;20469;-87
2022/12/10 06:31:20;;;;;;;53.23;17.40;;;;;;;;;;5033928;28;20049;-88
2022/12/10 06:33:45;;;;;;;54.30;17.13;;;;;;;;;;5031049;28;20037;-88
2022/12/10 06:36:11;;;;;;;47.47;15.27;;;;;;;;;;5031109;28;20075;-88
2022/12/10 06:38:37;;;;;;;57.63;18.03;;;;;;;;;;5031546;28;20037;-87
2022/12/10 06:41:06;;;;;;;58.23;16.37;;;;;;;;;;5032556;28;20025;-87
2022/12/10 06:43:31;;;;;;;66.73;20.30;;;;;;;;;;5018900;28;20025;-88
2022/12/10 06:45:56;;;;;;;55.20;16.63;;;;;;;;;;5028839;28;20032;-87
2022/12/10 06:48:22;;;;;;;54.57;17.20;;;;;;;;;;5043841;28;20026;-88
2022/12/10 06:50:47;;;;;;;63.07;18.87;;;;;;;;;;5032231;28;20024;-88
2022/12/10 06:53:12;;;;;;;53.23;17.70;;;;;;;;;;5032138;28;20021;-87
2022/12/10 06:55:40;;;;;;;53.17;19.00;;;;;;;;;;5031439;28;20025;-88
2022/12/10 06:58:05;;;;;;;53.80;17.87;;;;;;;;;;5032064;28;20017;-88
2022/12/10 07:00:31;;;;;;;53.97;16.53;;;;;;;;;;5033246;28;20495;-87
2022/12/10 07:02:56;;;;;;;50.07;16.37;;;;;;;;;;5032006;28;20017;-88
2022/12/10 07:05:21;;;;;;;57.40;16.67;;;;;;;;;;5031359;28;20438;-87
2022/12/10 07:07:46;;;;;;;55.37;17.93;;;;;;;;;;5027318;28;20014;-88
2022/12/10 07:10:11;;;;;;;60.43;18.50;;;;;;;;;;5031581;28;20028;-88
2022/12/10 07:12:37;;;;;;;63.80;18.63;;;;;;;;;;5031727;28;20044;-88
2022/12/10 07:15:02;;;;;;;59.97;17.43;;;;;;;;;;5032790;28;20030;-87
2022/12/10 07:17:27;;;;;;;56.70;17.50;;;;;;;;;;5031710;28;20075;-88
2022/12/10 07:19:53;;;;;;;58.50;16.53;;;;;;;;;;5025203;28;20457;-88
2022/12/10 07:22:18;;;;;;;61.93;16.47;;;;;;;;;;5027721;28;20473;-88
2022/12/10 07:24:43;;;;;;;56.53;15.13;;;;;;;;;;5031431;28;20109;-88
2022/12/10 07:27:09;;;;;;;58.43;16.97;;;;;;;;;;5031661;28;20014;-88
2022/12/10 07:29:34;;;;;;;44.13;12.73;;;;;;;;;;5032489;28;20040;-87
2022/12/10 07:31:59;;;;;;;46.70;15.20;;;;;;;;;;5031651;28;20479;-88
2022/12/10 07:34:25;;;;;;;49.53;15.20;;;;;;;;;;5031000;28;20025;-88
2022/12/10 07:36:50;;;;;;;58.17;17.27;;;;;;;;;;5032152;28;20100;-88
2022/12/10 07:39:17;;;;;;;42.77;16.60;;;;;;;;;;5031811;28;20068;-88
2022/12/10 07:41:43;;;;;;;47.53;15.00;;;;;;;;;;5031253;28;20017;-89
2022/12/10 07:44:11;;;;;;;65.83;18.73;;;;;;;;;;5030856;28;20105;-88
2022/12/10 07:46:37;;;;;;;56.37;17.07;;;;;;;;;;5031684;28;20021;-88
2022/12/10 07:49:02;;;;;;;61.97;16.33;;;;;;;;;;5030491;28;20100;-88
2022/12/10 07:51:27;;;;;;;54.13;16.33;;;;;;;;;;5031257;28;20052;-88
2022/12/10 07:53:53;;;;;;;60.50;16.10;;;;;;;;;;5032464;28;20013;-88
2022/12/10 07:56:19;;;;;;;56.87;17.00;;;;;;;;;;5031292;28;20074;-89
2022/12/10 07:58:44;;;;;;;58.97;16.53;;;;;;;;;;5029557;28;20017;-88
2022/12/10 08:01:11;;;;;;;63.53;18.30;;;;;;;;;;5027735;28;20037;-88
2022/12/10 08:03:36;;;;;;;56.47;15.93;;;;;;;;;;5031279;28;20047;-88
2022/12/10 08:06:03;;;;;;;54.83;15.83;;;;;;;;;;5032448;28;20013;-88
2022/12/10 08:08:28;;;;;;;52.43;15.03;;;;;;;;;;5030062;28;20079;-88
2022/12/10 08:10:54;;;;;;;54.20;15.37;;;;;;;;;;5017247;28;20022;-88
2022/12/10 08:13:19;;;;;;;57.00;15.83;;;;;;;;;;5035072;28;20116;-88
2022/12/10 08:15:44;;;;;;;52.33;15.17;;;;;;;;;;5032297;28;20357;-88
2022/12/10 08:18:09;;;;;;;56.17;15.97;;;;;;;;;;5035837;28;20057;-89
2022/12/10 08:20:34;;;;;;;45.60;13.53;;;;;;;;;;5034949;28;20018;-88
2022/12/10 08:23:00;;;;;;;42.20;13.63;;;;;;;;;;5035178;28;20025;-87
2022/12/10 08:25:25;;;;;;;59.13;15.70;;;;;;;;;;5034393;28;20025;-88
2022/12/10 08:27:50;;;;;;;57.57;16.93;;;;;;;;;;5034446;28;20017;-87
2022/12/10 08:30:15;;;;;;;51.03;14.23;;;;;;;;;;5028205;28;20373;-89
2022/12/10 08:32:40;;;;;;;57.60;16.27;;;;;;;;;;5048893;28;20018;-89
2022/12/10 08:35:06;;;;;;;49.63;15.80;;;;;;;;;;5030871;28;20346;-86
2022/12/10 08:37:31;;;;;;;46.77;13.33;;;;;;;;;;5043639;28;20495;-87
2022/12/10 08:39:56;;;;;;;57.83;16.47;;;;;;;;;;5037829;28;20025;-88
2022/12/10 08:42:21;;;;;;;43.63;14.17;;;;;;;;;;5044091;28;20427;-86
2022/12/10 08:44:47;;;;;;;53.73;16.33;;;;;;;;;;5032055;28;20026;-85
2022/12/10 08:47:12;;;;;;;51.40;15.13;;;;;;;;;;5031190;28;20061;-87
2022/12/10 08:49:37;;;;;;;53.07;16.27;;;;;;;;;;5035013;28;20014;-87
2022/12/10 08:52:02;;;;;;;48.60;17.23;;;;;;;;;;5034659;28;20014;-89
2022/12/10 08:54:27;;;;;;;46.60;14.87;;;;;;;;;;5033154;28;20017;-86
2022/12/10 08:56:53;;;;;;;49.57;16.80;;;;;;;;;;5035247;28;20032;-85
2022/12/10 08:59:18;;;;;;;53.80;16.03;;;;;;;;;;5033544;28;20025;-86
2022/12/10 09:01:43;;;;;;;60.27;16.97;;;;;;;;;;5029971;28;20108;-87
2022/12/10 09:04:09;;;;;;;44.93;14.70;;;;;;;;;;5035870;28;20521;-86
2022/12/10 09:06:34;;;;;;;54.80;17.10;;;;;;;;;;5035590;28;20033;-86
2022/12/10 09:08:59;;;;;;;47.73;15.77;;;;;;;;;;5033755;28;20029;-86
2022/12/10 09:11:27;;;;;;;55.20;16.07;;;;;;;;;;5024543;28;20377;-86
2022/12/10 09:13:52;;;;;;;59.50;17.80;;;;;;;;;;5035605;28;20017;-86
2022/12/10 09:16:18;;;;;;;47.87;14.07;;;;;;;;;;5034055;28;20109;-86
2022/12/10 09:18:43;;;;;;;57.20;16.70;;;;;;;;;;5034884;28;20029;-86
2022/12/10 09:21:12;;;;;;;47.00;14.53;;;;;;;;;;5030418;28;20025;-86
2022/12/10 09:23:37;;;;;;;49.60;15.40;;;;;;;;;;5029971;28;20021;-86
2022/12/10 09:26:05;;;;;;;42.43;12.53;;;;;;;;;;5024439;28;20087;-83
2022/12/10 09:28:30;;;;;;;49.10;15.33;;;;;;;;;;5038947;28;20025;-85
2022/12/10 09:31:00;;;;;;;47.37;15.10;;;;;;;;;;5029118;28;20080;-84
2022/12/10 09:33:25;;;;;;;38.43;12.83;;;;;;;;;;5034072;28;20055;-86
2022/12/10 09:35:50;;;;;;;50.50;14.90;;;;;;;;;;5027330;28;20331;-83
2022/12/10 09:38:16;;;;;;;39.00;12.67;;;;;;;;;;5029504;28;20026;-83
2022/12/10 09:40:46;;;;;;;51.67;13.07;;;;;;;;;;5033862;28;20033;-84
2022/12/10 09:43:11;;;;;;;43.43;12.57;;;;;;;;;;5046621;28;21113;-88
2022/12/10 09:45:44;;;;;;;55.40;14.23;;;;;;;;;;5033234;28;20076;-87
2022/12/10 09:48:28;;;;;;;41.80;12.77;;;;;;;;;;5030406;28;20410;-84
2022/12/10 09:51:02;;;;;;;47.60;14.70;;;;;;;;;;5036415;28;20018;-88
2022/12/10 09:53:28;;;;;;;41.37;13.07;;;;;;;;;;5034388;28;20042;-84
2022/12/10 09:55:53;;;;;;;51.00;14.30;;;;;;;;;;5029260;28;20104;-84
2022/12/10 09:58:24;;;;;;;59.50;16.90;;;;;;;;;;5031789;28;20086;-85
2022/12/10 10:00:51;;;;;;;62.83;18.30;;;;;;;;;;5029107;28;20481;-92
2022/12/10 10:03:16;;;;;;;58.83;18.57;;;;;;;;;;5033715;28;20017;-90
2022/12/10 10:05:44;;;;;;;45.77;15.30;;;;;;;;;;5038889;28;20025;-92
2022/12/10 10:08:33;;;;;;;50.43;16.47;;;;;;;;;;5040978;28;20503;-91
2022/12/10 10:10:59;;;;;;;53.77;15.13;;;;;;;;;;5040627;28;20021;-92
2022/12/10 10:13:28;;;;;;;58.07;14.93;;;;;;;;;;5040279;28;20112;-91
2022/12/10 10:15:53;;;;;;;53.33;14.23;;;;;;;;;;5029117;28;20083;-91
2022/12/10 10:18:37;;;;;;;52.27;13.80;;;;;;;;;;5037981;28;20022;-88
2022/12/10 10:21:04;;;;;;;58.33;16.47;;;;;;;;;;5022578;28;20108;-88
2022/12/10 10:23:30;;;;;;;55.10;16.67;;;;;;;;;;5030398;28;20444;-88
2022/12/10 10:25:56;;;;;;;56.77;17.10;;;;;;;;;;5032758;28;20056;-86
2022/12/10 10:28:21;;;;;;;63.20;17.87;;;;;;;;;;5033266;28;20025;-86
2022/12/10 10:30:47;;;;;;;61.37;18.63;;;;;;;;;;5035840;28;20014;-81
2022/12/10 10:33:14;;;;;;;67.13;16.80;;;;;;;;;;5031235;28;20093;-89
2022/12/10 10:35:44;;;;;;;62.37;16.83;;;;;;;;;;5024085;28;20084;-91
2022/12/10 10:38:20;;;;;;;54.93;18.53;;;;;;;;;;5037904;28;20022;-87
2022/12/10 10:40:46;;;;;;;63.67;17.87;;;;;;;;;;5027612;28;20022;-85
2022/12/10 10:43:18;;;;;;;67.50;20.30;;;;;;;;;;5033311;28;20354;-87
2022/12/10 10:45:47;;;;;;;59.08;16.55;;;;;;;;;;5023613;28;20475;-82
2022/12/10 10:48:17;;;;;;;66.67;17.50;;;;;;;;;;5026527;28;20021;-86
2022/12/10 10:51:02;;;;;;;66.23;18.10;;;;;;;;;;5038268;28;20026;-83
2022/12/10 10:53:30;;;;;;;67.63;16.93;;;;;;;;;;5043841;28;20140;-86
2022/12/10 10:55:56;;;;;;;68.37;18.30;;;;;;;;;;5027988;28;20121;-82
2022/12/10 10:58:22;;;;;;;66.10;19.23;;;;;;;;;;5047677;28;20137;-84
2022/12/10 11:00:57;;;;;;;67.53;17.60;;;;;;;;;;5020470;28;20061;-87
2022/12/10 11:03:25;;;;;;;71.57;22.23;;;;;;;;;;5028196;28;20508;-86
2022/12/10 11:05:50;;;;;;;66.37;19.30;;;;;;;;;;5030438;28;20539;-87
2022/12/10 11:08:23;;;;;;;72.23;18.17;;;;;;;;;;5030836;28;20018;-87
2022/12/10 11:10:49;;;;;;;63.03;16.80;;;;;;;;;;5027507;28;20018;-89
2022/12/10 11:13:19;;;;;;;68.17;18.50;;;;;;;;;;5035102;28;20114;-89
2022/12/10 11:15:45;;;;;;;81.87;20.10;;;;;;;;;;5043537;28;20025;-89
2022/12/10 11:18:29;;;;;;;65.57;17.47;;;;;;;;;;5030873;28;20035;-89
2022/12/10 11:20:58;;;;;;;61.33;17.00;;;;;;;;;;5042382;28;20495;-90
2022/12/10 11:23:27;;;;;;;64.37;18.60;;;;;;;;;;5024050;28;20037;-90
2022/12/10 11:25:58;;;;;;;59.23;16.33;;;;;;;;;;5033414;28;20053;-90
2022/12/10 11:28:39;;;;;;;61.27;16.10;;;;;;;;;;5031008;28;20020;-90
2022/12/10 11:31:23;;;;;;;63.43;17.67;;;;;;;;;;5032193;28;20018;-90
2022/12/10 11:34:07;;;;;;;61.20;17.47;;;;;;;;;;5018514;28;20028;-90
2022/12/10 11:36:43;;;;;;;52.93;15.43;;;;;;;;;;5030492;28;20025;-88
2022/12/10 11:39:11;;;;;;;60.60;16.87;;;;;;;;;;5026065;28;20057;-89
2022/12/10 11:41:49;;;;;;;61.73;15.73;;;;;;;;;;5048121;28;20414;-89
2022/12/10 11:44:33;;;;;;;58.90;16.30;;;;;;;;;;5030991;28;20203;-89
2022/12/10 11:47:05;;;;;;;56.80;17.87;;;;;;;;;;5049768;28;20055;-89
2022/12/10 11:49:45;;;;;;;59.30;16.10;;;;;;;;;;5039645;28;20025;-84
2022/12/10 11:52:20;;;;;;;50.87;14.87;;;;;;;;;;5046456;28;20033;-84
2022/12/10 11:54:48;;;;;;;62.23;16.53;;;;;;;;;;5043706;28;20067;-83
2022/12/10 11:57:13;;;;;;;65.23;17.80;;;;;;;;;;5032949;28;20018;-83
2022/12/10 11:59:46;;;;;;;60.37;18.50;;;;;;;;;;5046786;28;20130;-82
2022/12/10 12:02:20;;;;;;;52.60;15.27;;;;;;;;;;5032250;28;20048;-83
2022/12/10 12:05:04;;;;;;;59.30;17.43;;;;;;;;;;5039163;28;20365;-83
2022/12/10 12:07:39;;;;;;;60.33;15.70;;;;;;;;;;5030986;28;20168;-82
2022/12/10 12:10:23;;;;;;;55.67;16.50;;;;;;;;;;5025570;28;20600;-82
2022/12/10 12:12:52;;;;;;;54.23;15.40;;;;;;;;;;5041579;28;20148;-83
2022/12/10 12:15:31;;;;;;;63.47;18.47;;;;;;;;;;5029890;28;20067;-83
2022/12/10 12:18:04;;;;;;;61.40;16.37;;;;;;;;;;5029807;28;20049;-83
2022/12/10 12:20:32;;;;;;;64.13;16.83;;;;;;;;;;5032183;28;20087;-83
2022/12/10 12:23:13;;;;;;;61.20;17.33;;;;;;;;;;5029349;28;20029;-83
2022/12/10 12:25:41;;;;;;;56.05;15.30;;;;;;;;;;5031034;28;20035;-83
2022/12/10 12:28:21;;;;;;;55.77;15.87;;;;;;;;;;5032018;28;20049;-83
2022/12/10 12:30:47;;;;;;;61.97;17.47;;;;;;;;;;5030577;28;20014;-83
2022/12/10 12:33:24;;;;;;;61.00;17.13;;;;;;;;;;5030178;28;20033;-83
2022/12/10 12:35:51;;;;;;;65.00;17.83;;;;;;;;;;5047198;28;20045;-83
2022/12/10 12:38:26;;;;;;;59.90;17.07;;;;;;;;;;5028952;28;20025;-83
2022/12/10 12:41:05;;;;;;;65.70;17.10;;;;;;;;;;5047115;28;20026;-83
2022/12/10 12:43:33;;;;;;;62.60;17.23;;;;;;;;;;5029991;28;20026;-84
2022/12/10 12:45:59;;;;;;;60.03;14.40;;;;;;;;;;5034586;28;20022;-84
2022/12/10 12:48:36;;;;;;;54.50;13.23;;;;;;;;;;5025361;28;20378;-84
2022/12/10 12:51:05;;;;;;;58.33;16.77;;;;;;;;;;5031793;28;20009;-84
2022/12/10 12:53:30;;;;;;;53.67;15.27;;;;;;;;;;5032212;28;20022;-83
2022/12/10 12:56:02;;;;;;;50.07;11.97;;;;;;;;;;5028790;28;20025;-83
2022/12/10 12:58:40;;;;;;;53.67;14.73;;;;;;;;;;5041598;28;20059;-83
2022/12/10 13:01:11;;;;;;;60.13;17.37;;;;;;;;;;5030608;28;20026;-83
2022/12/10 13:03:39;;;;;;;62.63;16.03;;;;;;;;;;5038542;28;20472;-82
2022/12/10 13:06:31;;;;;;;55.57;14.77;;;;;;;;;;5031785;28;20021;-84
2022/12/10 13:09:11;;;;;;;56.70;15.47;;;;;;;;;;5046416;28;20025;-84
2022/12/10 13:11:37;;;;;;;55.07;16.23;;;;;;;;;;5039782;28;20018;-84
2022/12/10 13:14:13;;;;;;;54.63;15.97;;;;;;;;;;5033048;28;20087;-83
2022/12/10 13:16:44;;;;;;;58.90;17.30;;;;;;;;;;5027618;28;20025;-85
2022/12/10 13:19:19;;;;;;;62.43;19.40;;;;;;;;;;5036912;28;20026;-84
2022/12/10 13:21:50;;;;;;;59.97;17.30;;;;;;;;;;5038617;28;20513;-84
2022/12/10 13:24:17;;;;;;;59.93;18.10;;;;;;;;;;5022523;28;20026;-85
2022/12/10 13:27:02;;;;;;;54.23;17.10;;;;;;;;;;5032998;28;20108;-84
2022/12/10 13:29:27;;;;;;;44.90;12.47;;;;;;;;;;5049450;28;20022;-84
2022/12/10 13:32:00;;;;;;;60.37;16.43;;;;;;;;;;5031377;28;20020;-85
2022/12/10 13:34:30;;;;;;;48.70;14.03;;;;;;;;;;5031918;28;20382;-85
2022/12/10 13:37:02;;;;;;;48.97;12.77;;;;;;;;;;5033258;28;20018;-84
2022/12/10 13:39:33;;;;;;;52.17;14.13;;;;;;;;;;5054571;28;20036;-85
2022/12/10 13:45:21;;;;;;;56.27;15.23;;;;;;;;;;5033978;28;20144;-84
2022/12/10 13:47:47;;;;;;;54.90;17.37;;;;;;;;;;5047823;28;20013;-84
2022/12/10 13:50:16;;;;;;;65.13;16.47;;;;;;;;;;5033616;28;20316;-85
2022/12/10 13:52:41;;;;;;;65.60;18.17;;;;;;;;;;5031510;28;20057;-83
2022/12/10 13:55:14;;;;;;;57.60;17.57;;;;;;;;;;5036520;28;20056;-84
2022/12/10 13:57:58;;;;;;;56.90;17.13;;;;;;;;;;5032707;28;20167;-84
2022/12/10 14:00:31;;;;;;;58.70;16.27;;;;;;;;;;5044343;28;20025;-84
2022/12/10 14:03:05;;;;;;;63.00;17.87;;;;;;;;;;5043425;28;20102;-86
2022/12/10 14:06:03;;;;;;;54.37;16.57;;;;;;;;;;5043509;28;20029;-82
2022/12/10 14:08:30;;;;;;;57.67;17.93;;;;;;;;;;5029664;28;20029;-82
2022/12/10 14:10:57;;;;;;;62.80;17.67;;;;;;;;;;5020570;28;20037;-82
2022/12/10 14:13:27;;;;;;;64.47;17.37;;;;;;;;;;5024717;28;20021;-83
2022/12/10 14:15:56;;;;;;;64.13;18.07;;;;;;;;;;5026067;28;20116;-83
2022/12/10 14:18:22;;;;;;;62.40;18.73;;;;;;;;;;5035283;28;20033;-83
2022/12/10 14:20:50;;;;;;;56.00;15.73;;;;;;;;;;5032053;28;20160;-82
2022/12/10 14:23:38;;;;;;;57.87;18.77;;;;;;;;;;5026441;28;20477;-84
2022/12/10 14:26:09;;;;;;;65.80;17.77;;;;;;;;;;5030838;28;20025;-84
2022/12/10 14:28:37;;;;;;;61.10;17.93;;;;;;;;;;5042044;28;20443;-82
2022/12/10 14:31:06;;;;;;;54.97;17.33;;;;;;;;;;5029063;28;20414;-82
2022/12/10 14:33:31;;;;;;;63.27;18.87;;;;;;;;;;5026068;28;20441;-81
2022/12/10 14:35:56;;;;;;;57.13;16.33;;;;;;;;;;5020368;28;20031;-82
2022/12/10 14:38:33;;;;;;;61.00;17.67;;;;;;;;;;5021722;28;20030;-84
2022/12/10 14:40:58;;;;;;;54.40;16.87;;;;;;;;;;5031025;28;20052;-83